Etusivu
METAR-TAF:

METAR-TAF

Lentoasemat :

Wahpeton, Pohjois-Dakota, Yhdysvallat

Leveyspiiri: 46-14-39N, Pituuspiiri: 096-36-26W, korkeus merenpinnasta: 295 m

Tämänhetkinen sää

Tämä raportti tehtiin 19 minuuttia sitten, kello 17.35 UTC
Tuuli 8 kn lännestä
Lämpötila 3°C
Kosteus 65%
Ilmanpaine 1021 hPa
Näkyvyys: 16.1 km
selkeää

METAR: KBWP 141735Z AUTO 26008KT 10SM CLR 03/M03 A3014 RMK AO1

Aika: 11:54 (17:54 UTC)


TAF: puuttuu

Säähavainnot ja -ennusteet yli 4000 lentoasemalta (METAR- ja TAF-raportit).

Käytössä olevat sääasemat on merkitty karttaan keltaisilla ja punaisilla pisteillä.

Aseta hiiri pisteen päälle nähdäksesi sääaseman nimen.

Klikkaa sitten nähdäksesi säähavainnot ja -ennusteet.

Kartan vaihtaminen: klikkaa mustalla rastilla varustettuja vihreitä pisteitä, niin voit zoomata sisään; viivalla varustettua vihreää pistettä, niin voit zoomata ulos tai vihreitä nuolia, niin pääset viereisille kartoille.


METAR-TAF: